Time;durP1;ratioP1;P1;durP2;ratioP2;P2;SDS_P1;SDS_P2;PMS_P1;PMS_P2;Temp;Humidity;BMP_temperature;BMP_pressure;BME280_temperature;BME280_humidity;BME280_pressure;Samples;Min_cycle;Max_cycle;Signal;HPM_P1;HPM_P2
2023/06/08 00:02:13;;;;;;;;;;;;;;;14.47;53.44336;102151;;;;-70
2023/06/08 00:07:14;;;;;;;;;;;;;;;14.4;53.42285;102145.3;;;;-68
2023/06/08 00:12:13;;;;;;;;;;;;;;;14.31;53.72656;102140.3;;;;-68
2023/06/08 00:15:10;;;;;;;0.3;0.1;;;;;;;;;;;;;-72
2023/06/08 00:17:14;;;;;;;;;;;;;;;14.27;53.83496;102133.3;;;;-68
2023/06/08 00:22:13;;;;;;;;;;;;;;;14.22;53.84082;102130;;;;-69
2023/06/08 00:27:17;;;;;;;;;;;;;;;14.15;53.79785;102131.7;;;;-69
2023/06/08 00:32:13;;;;;;;;;;;;;;;14.12;53.97461;102124.4;;;;-67
2023/06/08 00:37:13;;;;;;;;;;;;;;;14.07;53.88867;102122.3;;;;-69
2023/06/08 00:42:13;;;;;;;;;;;;;;;14.05;53.8877;102127.2;;;;-68
2023/06/08 00:45:12;;;;;;;0.2;0.1;;;;;;;;;;;;;-69
2023/06/08 00:47:13;;;;;;;;;;;;;;;13.99;53.87988;102119.3;;;;-67
2023/06/08 00:52:13;;;;;;;;;;;;;;;13.96;53.84277;102114;;;;-69
2023/06/08 00:57:16;;;;;;;;;;;;;;;13.95;54.07715;102109.5;;;;-70
2023/06/08 01:02:13;;;;;;;;;;;;;;;13.91;53.75781;102114.1;;;;-72
2023/06/08 01:07:19;;;;;;;;;;;;;;;13.87;53.98926;102111.2;;;;-69
2023/06/08 01:12:25;;;;;;;;;;;;;;;13.87;53.97656;102111.8;;;;-70
2023/06/08 01:15:16;;;;;;;0.3;0.2;;;;;;;;;;;;;-68
2023/06/08 01:17:14;;;;;;;;;;;;;;;13.86;54.06641;102109.4;;;;-68
2023/06/08 01:22:26;;;;;;;;;;;;;;;13.85;54.25586;102108.3;;;;-68
2023/06/08 01:27:14;;;;;;;;;;;;;;;13.87;54.41504;102104.9;;;;-69
2023/06/08 01:32:13;;;;;;;;;;;;;;;13.84;54.72754;102112.3;;;;-69
2023/06/08 01:37:17;;;;;;;;;;;;;;;13.86;54.89648;102110.6;;;;-68
2023/06/08 01:42:15;;;;;;;;;;;;;;;13.83;54.73633;102103.9;;;;-68
2023/06/08 01:45:17;;;;;;;0.2;0.1;;;;;;;;;;;;;-68
2023/06/08 01:47:25;;;;;;;;;;;;;;;13.81;55.19531;102094.3;;;;-69
2023/06/08 01:52:14;;;;;;;;;;;;;;;13.78;55.08887;102095.8;;;;-68
2023/06/08 01:57:13;;;;;;;;;;;;;;;13.74;55.41016;102098.9;;;;-69
2023/06/08 02:02:15;;;;;;;;;;;;;;;13.69;55.21289;102095;;;;-68
2023/06/08 02:07:13;;;;;;;;;;;;;;;13.67;55.3457;102086.2;;;;-68
2023/06/08 02:12:13;;;;;;;;;;;;;;;13.62;55.5293;102083.6;;;;-68
2023/06/08 02:15:16;;;;;;;0.2;0.1;;;;;;;;;;;;;-70
2023/06/08 02:17:13;;;;;;;;;;;;;;;13.58;55.24316;102086.9;;;;-68
2023/06/08 02:22:13;;;;;;;;;;;;;;;13.53;55.51953;102076;;;;-70
2023/06/08 02:27:13;;;;;;;;;;;;;;;13.49;55.58105;102076;;;;-68
2023/06/08 02:32:17;;;;;;;;;;;;;;;13.47;55.94922;102075;;;;-70
2023/06/08 02:37:15;;;;;;;;;;;;;;;13.46;56.15918;102069.2;;;;-68
2023/06/08 02:42:13;;;;;;;;;;;;;;;13.42;56.41309;102072.7;;;;-67
2023/06/08 02:45:18;;;;;;;0.2;0;;;;;;;;;;;;;-67
2023/06/08 02:47:13;;;;;;;;;;;;;;;13.42;56.37988;102074.3;;;;-69
2023/06/08 02:52:13;;;;;;;;;;;;;;;13.39;56.50977;102070.3;;;;-68
2023/06/08 02:57:15;;;;;;;;;;;;;;;13.4;56.46582;102061.7;;;;-66
2023/06/08 03:02:13;;;;;;;;;;;;;;;13.36;56.70898;102058.3;;;;-69
2023/06/08 03:07:15;;;;;;;;;;;;;;;13.34;56.63965;102068.1;;;;-68
2023/06/08 03:12:14;;;;;;;;;;;;;;;13.34;56.76172;102065.8;;;;-69
2023/06/08 03:15:22;;;;;;;0.2;0.1;;;;;;;;;;;;;-69
2023/06/08 03:17:13;;;;;;;;;;;;;;;13.3;56.93555;102059.9;;;;-68
2023/06/08 03:22:13;;;;;;;;;;;;;;;13.28;56.69727;102055.1;;;;-68
2023/06/08 03:27:16;;;;;;;;;;;;;;;13.29;57.13672;102057.6;;;;-68
2023/06/08 03:32:13;;;;;;;;;;;;;;;13.3;57.00293;102057.8;;;;-70
2023/06/08 03:37:13;;;;;;;;;;;;;;;13.27;57.30273;102060.3;;;;-68
2023/06/08 03:42:13;;;;;;;;;;;;;;;13.29;57.40527;102061.5;;;;-67
2023/06/08 03:45:25;;;;;;;1.7;0.4;;;;;;;;;;;;;-69
2023/06/08 03:47:14;;;;;;;;;;;;;;;13.27;57.76172;102058.1;;;;-67
2023/06/08 03:52:13;;;;;;;;;;;;;;;13.26;57.22266;102057.2;;;;-70
2023/06/08 03:57:13;;;;;;;;;;;;;;;13.26;57.60352;102057.4;;;;-69
2023/06/08 04:02:13;;;;;;;;;;;;;;;13.29;57.98828;102060.5;;;;-68
2023/06/08 04:07:13;;;;;;;;;;;;;;;13.33;57.80176;102057.5;;;;-68
2023/06/08 04:12:13;;;;;;;;;;;;;;;13.32;57.80176;102057.5;;;;-69
2023/06/08 04:15:25;;;;;;;0.2;0.1;;;;;;;;;;;;;-68
2023/06/08 04:17:13;;;;;;;;;;;;;;;13.37;58.13379;102058.4;;;;-68
2023/06/08 04:22:13;;;;;;;;;;;;;;;13.37;57.77539;102060;;;;-69
2023/06/08 04:27:13;;;;;;;;;;;;;;;13.42;57.80371;102055;;;;-69
2023/06/08 04:32:13;;;;;;;;;;;;;;;13.48;57.62109;102061.7;;;;-68
2023/06/08 04:37:17;;;;;;;;;;;;;;;13.52;57.72754;102062.4;;;;-69
2023/06/08 04:42:14;;;;;;;;;;;;;;;13.56;57.41895;102061.6;;;;-69
2023/06/08 04:45:25;;;;;;;0.2;0.1;;;;;;;;;;;;;-68
2023/06/08 04:47:14;;;;;;;;;;;;;;;13.66;57.61035;102063.5;;;;-68
2023/06/08 04:52:15;;;;;;;;;;;;;;;13.78;57.54883;102061.8;;;;-69
2023/06/08 04:57:15;;;;;;;;;;;;;;;13.82;57.72168;102062.7;;;;-69
2023/06/08 05:02:13;;;;;;;;;;;;;;;13.92;57.52148;102064.3;;;;-68
2023/06/08 05:07:13;;;;;;;;;;;;;;;14.02;58.07324;102064.5;;;;-67
2023/06/08 05:12:14;;;;;;;;;;;;;;;14.11;57.84961;102065.4;;;;-69
2023/06/08 05:15:26;;;;;;;0.3;0.1;;;;;;;;;;;;;-68
2023/06/08 05:17:13;;;;;;;;;;;;;;;14.23;57.77539;102063.5;;;;-70
2023/06/08 05:22:13;;;;;;;;;;;;;;;14.35;57.8252;102064.3;;;;-69
2023/06/08 05:27:15;;;;;;;;;;;;;;;14.47;57.89648;102066.6;;;;-68
2023/06/08 05:32:15;;;;;;;;;;;;;;;14.59;58.11523;102067;;;;-70
2023/06/08 05:37:18;;;;;;;;;;;;;;;14.81;57.89746;102060.5;;;;-68
2023/06/08 05:42:14;;;;;;;;;;;;;;;15.09;58.18164;102058.4;;;;-72
2023/06/08 05:45:30;;;;;;;0.2;0.1;;;;;;;;;;;;;-68
2023/06/08 05:47:13;;;;;;;;;;;;;;;15.29;57.41895;102048.5;;;;-69
2023/06/08 05:52:13;;;;;;;;;;;;;;;15.46;57.42969;102051;;;;-68
2023/06/08 05:57:15;;;;;;;;;;;;;;;15.69;56.92969;102043.2;;;;-69
2023/06/08 06:02:16;;;;;;;;;;;;;;;15.95;56.92871;102041;;;;-69
2023/06/08 06:07:15;;;;;;;;;;;;;;;16.05;56.99902;102039.8;;;;-70
2023/06/08 06:12:13;;;;;;;;;;;;;;;16.06;57.00098;102036.7;;;;-71
2023/06/08 06:15:32;;;;;;;0.2;0.1;;;;;;;;;;;;;-68
2023/06/08 06:17:15;;;;;;;;;;;;;;;16.03;57.56152;102044.8;;;;-69
2023/06/08 06:22:15;;;;;;;;;;;;;;;16.02;58.05566;102049;;;;-69
2023/06/08 06:27:13;;;;;;;;;;;;;;;16.14;58.19531;102050.7;;;;-69
2023/06/08 06:32:14;;;;;;;;;;;;;;;16.29;57.92188;102051.4;;;;-68
2023/06/08 06:37:14;;;;;;;;;;;;;;;16.46;57.68457;102043.9;;;;-68
2023/06/08 06:42:16;;;;;;;;;;;;;;;16.57;57.42871;102049;;;;-68
2023/06/08 06:45:32;;;;;;;0.2;0.1;;;;;;;;;;;;;-70
2023/06/08 06:47:13;;;;;;;;;;;;;;;16.81;56.71289;102044.1;;;;-69
2023/06/08 06:52:13;;;;;;;;;;;;;;;16.95;56.5166;102041.4;;;;-69
2023/06/08 06:57:13;;;;;;;;;;;;;;;17.14;56.01953;102053.4;;;;-71
2023/06/08 07:02:16;;;;;;;;;;;;;;;17.28;55.65234;102052.5;;;;-69
2023/06/08 07:07:13;;;;;;;;;;;;;;;17.4;55.47559;102040.3;;;;-69
2023/06/08 07:12:13;;;;;;;;;;;;;;;17.64;54.82617;102036.3;;;;-69
2023/06/08 07:15:38;;;;;;;0.7;0.3;;;;;;;;;;;;;-69
2023/06/08 07:17:14;;;;;;;;;;;;;;;18.01;54.09961;102034.7;;;;-70
2023/06/08 07:22:15;;;;;;;;;;;;;;;18.29;53.37402;102036.9;;;;-70
2023/06/08 07:27:15;;;;;;;;;;;;;;;18.48;53.24902;102042.3;;;;-68
2023/06/08 07:32:16;;;;;;;;;;;;;;;18.58;53.3291;102037.4;;;;-70
2023/06/08 07:37:16;;;;;;;;;;;;;;;18.81;53.15234;102044.8;;;;-69
2023/06/08 07:42:14;;;;;;;;;;;;;;;19.34;52.41895;102038.1;;;;-68
2023/06/08 07:45:36;;;;;;;0.3;0.1;;;;;;;;;;;;;-69
2023/06/08 07:47:13;;;;;;;;;;;;;;;19.8;50.95801;102042.6;;;;-70
2023/06/08 07:52:13;;;;;;;;;;;;;;;19.7;51.01465;102034.9;;;;-69
2023/06/08 07:57:14;;;;;;;;;;;;;;;19.95;51.17969;102032.1;;;;-69
2023/06/08 08:02:13;;;;;;;;;;;;;;;20.43;50.32129;102028.8;;;;-69
2023/06/08 08:07:13;;;;;;;;;;;;;;;20.78;49.66504;102021.2;;;;-70
2023/06/08 08:12:13;;;;;;;;;;;;;;;21.01;49.3125;102021.7;;;;-68
2023/06/08 08:15:39;;;;;;;0.2;0.1;;;;;;;;;;;;;-69
2023/06/08 08:17:13;;;;;;;;;;;;;;;21.29;49;102018;;;;-68
2023/06/08 08:22:13;;;;;;;;;;;;;;;21.61;48.44043;102012.1;;;;-71
2023/06/08 08:27:13;;;;;;;;;;;;;;;21.96;47.70996;102012.9;;;;-68
2023/06/08 08:32:14;;;;;;;;;;;;;;;22.35;47.17676;102019.7;;;;-69
2023/06/08 08:37:13;;;;;;;;;;;;;;;22.61;46.74414;102020;;;;-69
2023/06/08 08:42:15;;;;;;;;;;;;;;;22.95;46.05566;102026;;;;-69
2023/06/08 08:45:46;;;;;;;0.3;0.2;;;;;;;;;;;;;-67
2023/06/08 08:47:14;;;;;;;;;;;;;;;23.21;45.7959;102025.5;;;;-69
2023/06/08 08:52:13;;;;;;;;;;;;;;;23.46;45.46387;102019.9;;;;-70
2023/06/08 08:57:13;;;;;;;;;;;;;;;23.76;44.96484;102019.2;;;;-69
2023/06/08 09:02:14;;;;;;;;;;;;;;;23.94;44.55664;102016.1;;;;-69
2023/06/08 09:07:13;;;;;;;;;;;;;;;24.28;44.32422;102020.7;;;;-69
2023/06/08 09:12:13;;;;;;;;;;;;;;;24.58;43.69629;102025;;;;-70
2023/06/08 09:15:46;;;;;;;0.4;0.1;;;;;;;;;;;;;-69
2023/06/08 09:17:12;;;;;;;;;;;;;;;24.72;43.50098;102025.1;;;;-68
2023/06/08 09:22:25;;;;;;;;;;;;;;;24.89;43.28711;102017.1;;;;-69
2023/06/08 09:27:23;;;;;;;;;;;;;;;25.01;43.03223;102009.5;;;;-69
2023/06/08 09:32:25;;;;;;;;;;;;;;;25.22;42.84473;102010.9;;;;-69
2023/06/08 09:37:14;;;;;;;;;;;;;;;25.37;42.56934;102009.7;;;;-67
2023/06/08 09:42:13;;;;;;;;;;;;;;;25.68;42.07813;102008;;;;-68
2023/06/08 09:45:55;;;;;;;0.4;0.2;;;;;;;;;;;;;-69
2023/06/08 09:47:30;;;;;;;;;;;;;;;25.94;41.74316;101997.8;;;;-69
2023/06/08 09:52:14;;;;;;;;;;;;;;;26.23;41.27051;101995.8;;;;-69
2023/06/08 09:57:13;;;;;;;;;;;;;;;26.44;41.23242;101997.4;;;;-68
2023/06/08 10:02:20;;;;;;;;;;;;;;;26.66;40.75293;101997.2;;;;-70
2023/06/08 10:07:14;;;;;;;;;;;;;;;26.91;40.60156;101993;;;;-69
2023/06/08 10:12:14;;;;;;;;;;;;;;;27.15;40.44824;101988.3;;;;-69
2023/06/08 10:15:55;;;;;;;0.5;0.2;;;;;;;;;;;;;-69
2023/06/08 10:17:15;;;;;;;;;;;;;;;27.41;39.9834;101993.8;;;;-69
2023/06/08 10:22:13;;;;;;;;;;;;;;;27.72;39.5332;101994.1;;;;-69
2023/06/08 10:27:25;;;;;;;;;;;;;;;27.92;39.27148;101993.1;;;;-69
2023/06/08 10:32:14;;;;;;;;;;;;;;;27.93;39.4707;101988.9;;;;-69
2023/06/08 10:37:32;;;;;;;;;;;;;;;28.02;39.57129;101988.7;;;;-70
2023/06/08 10:42:20;;;;;;;;;;;;;;;28.06;39.36426;101987.7;;;;-70
2023/06/08 10:45:59;;;;;;;0.3;0.1;;;;;;;;;;;;;-67
2023/06/08 10:47:15;;;;;;;;;;;;;;;28.13;40.62891;101981.6;;;;-69
2023/06/08 10:52:21;;;;;;;;;;;;;;;28.19;39.88965;101976.3;;;;-71
2023/06/08 10:57:13;;;;;;;;;;;;;;;28.34;39.20215;101977;;;;-71
2023/06/08 11:02:12;;;;;;;;;;;;;;;28.49;37.97949;101973.6;;;;-68
2023/06/08 11:07:13;;;;;;;;;;;;;;;28.55;39.6416;101969.6;;;;-70
2023/06/08 11:12:13;;;;;;;;;;;;;;;28.56;38.89453;101963.5;;;;-68
2023/06/08 11:16:04;;;;;;;0.2;0.1;;;;;;;;;;;;;-68
2023/06/08 11:17:13;;;;;;;;;;;;;;;28.78;39.45117;101960.8;;;;-67
2023/06/08 11:22:13;;;;;;;;;;;;;;;28.94;39.68652;101957.5;;;;-69
2023/06/08 11:27:19;;;;;;;;;;;;;;;29.12;38.99023;101957.6;;;;-70
2023/06/08 11:32:17;;;;;;;;;;;;;;;29.33;38.76367;101955.9;;;;-69
2023/06/08 11:37:13;;;;;;;;;;;;;;;29.38;38.85938;101942.8;;;;-70
2023/06/08 11:42:13;;;;;;;;;;;;;;;29.62;38.47168;101942.8;;;;-69
2023/06/08 11:46:08;;;;;;;0.2;0;;;;;;;;;;;;;-68
2023/06/08 11:47:16;;;;;;;;;;;;;;;29.87;39.06543;101941;;;;-69
2023/06/08 11:52:14;;;;;;;;;;;;;;;30.02;38.41113;101939.2;;;;-69
2023/06/08 11:57:13;;;;;;;;;;;;;;;30.14;38.23438;101934.9;;;;-68
2023/06/08 12:02:15;;;;;;;;;;;;;;;30.21;38.04102;101923.3;;;;-69
2023/06/08 12:07:16;;;;;;;;;;;;;;;30.29;38.10645;101920.2;;;;-70
2023/06/08 12:12:13;;;;;;;;;;;;;;;30.43;37.84961;101912.5;;;;-68
2023/06/08 12:16:14;;;;;;;0.2;0;;;;;;;;;;;;;-69
2023/06/08 12:17:15;;;;;;;;;;;;;;;30.58;37.68555;101906;;;;-67
2023/06/08 12:22:13;;;;;;;;;;;;;;;30.71;38.27148;101903.7;;;;-68
2023/06/08 12:27:13;;;;;;;;;;;;;;;30.88;37.55762;101897.3;;;;-69
2023/06/08 12:32:16;;;;;;;;;;;;;;;31.1;38.4209;101889.1;;;;-69
2023/06/08 12:37:13;;;;;;;;;;;;;;;31.3;38.1084;101891.5;;;;-68
2023/06/08 12:42:13;;;;;;;;;;;;;;;31.37;37.73926;101887.2;;;;-69
2023/06/08 12:46:25;;;;;;;0.2;0;;;;;;;;;;;;;-68
2023/06/08 12:47:13;;;;;;;;;;;;;;;31.53;37.66992;101887.7;;;;-68
2023/06/08 12:52:17;;;;;;;;;;;;;;;31.66;37.96289;101886.4;;;;-67
2023/06/08 12:57:13;;;;;;;;;;;;;;;31.61;36.7373;101884.5;;;;-69
2023/06/08 13:02:13;;;;;;;;;;;;;;;31.6;36.59473;101882;;;;-69
2023/06/08 13:07:22;;;;;;;;;;;;;;;31.56;36.86133;101873.8;;;;-69
2023/06/08 13:12:15;;;;;;;;;;;;;;;31.65;35.99902;101876.7;;;;-68
2023/06/08 13:16:25;;;;;;;0.1;0;;;;;;;;;;;;;-70
2023/06/08 13:17:13;;;;;;;;;;;;;;;31.74;36.3584;101870;;;;-69
2023/06/08 13:22:13;;;;;;;;;;;;;;;31.79;35.39844;101868.3;;;;-68
2023/06/08 13:27:23;;;;;;;;;;;;;;;31.78;34.91602;101866.5;;;;-68
2023/06/08 13:32:13;;;;;;;;;;;;;;;31.79;35.92773;101863.2;;;;-68
2023/06/08 13:37:12;;;;;;;;;;;;;;;31.76;35.85449;101854.5;;;;-69
2023/06/08 13:42:13;;;;;;;;;;;;;;;31.85;36.08594;101852.3;;;;-69
2023/06/08 13:46:30;;;;;;;0.3;0;;;;;;;;;;;;;-68
2023/06/08 13:47:13;;;;;;;;;;;;;;;31.86;35.69824;101847.9;;;;-69
2023/06/08 13:52:13;;;;;;;;;;;;;;;31.92;36.19629;101844;;;;-70
2023/06/08 13:57:13;;;;;;;;;;;;;;;32.04;35.55859;101838.5;;;;-69
2023/06/08 14:02:13;;;;;;;;;;;;;;;32.04;35.61816;101833.7;;;;-70
2023/06/08 14:07:13;;;;;;;;;;;;;;;31.94;34.22168;101831.8;;;;-69
2023/06/08 14:12:14;;;;;;;;;;;;;;;31.99;35.2373;101825.5;;;;-71
2023/06/08 14:16:37;;;;;;;0.3;0.1;;;;;;;;;;;;;-68
2023/06/08 14:17:13;;;;;;;;;;;;;;;31.92;35.31445;101826.9;;;;-72
2023/06/08 14:22:13;;;;;;;;;;;;;;;32;34.79102;101820.1;;;;-68
2023/06/08 14:27:13;;;;;;;;;;;;;;;31.96;35.22363;101814.4;;;;-70
2023/06/08 14:32:13;;;;;;;;;;;;;;;31.99;34.68457;101805.1;;;;-69
2023/06/08 14:37:13;;;;;;;;;;;;;;;31.96;34.39941;101806.8;;;;-68
2023/06/08 14:42:13;;;;;;;;;;;;;;;31.81;34.88184;101798.4;;;;-69
2023/06/08 14:46:42;;;;;;;0.3;0;;;;;;;;;;;;;-67
2023/06/08 14:47:16;;;;;;;;;;;;;;;31.81;33.24609;101791.2;;;;-70
2023/06/08 14:52:13;;;;;;;;;;;;;;;31.74;34.72461;101793.5;;;;-69
2023/06/08 14:57:13;;;;;;;;;;;;;;;31.56;33.65234;101785.6;;;;-69
2023/06/08 15:02:14;;;;;;;;;;;;;;;31.58;35.13574;101785.9;;;;-68
2023/06/08 15:07:13;;;;;;;;;;;;;;;31.46;35.33789;101786.7;;;;-69
2023/06/08 15:12:13;;;;;;;;;;;;;;;31.43;34.75977;101786.6;;;;-67
2023/06/08 15:16:50;;;;;;;0.2;0;;;;;;;;;;;;;-66
2023/06/08 15:17:13;;;;;;;;;;;;;;;31.4;34.89844;101776.2;;;;-70
2023/06/08 15:22:13;;;;;;;;;;;;;;;31.31;35.12695;101779.3;;;;-67
2023/06/08 15:27:13;;;;;;;;;;;;;;;31.19;35.12891;101774.7;;;;-67
2023/06/08 15:32:13;;;;;;;;;;;;;;;31.04;35.49219;101767.6;;;;-70
2023/06/08 15:37:13;;;;;;;;;;;;;;;30.95;35.02832;101773.6;;;;-67
2023/06/08 15:42:15;;;;;;;;;;;;;;;30.84;34.44434;101771.8;;;;-67
2023/06/08 15:46:56;;;;;;;0.1;0;;;;;;;;;;;;;-68
2023/06/08 15:47:13;;;;;;;;;;;;;;;30.67;34.78418;101766.2;;;;-69
2023/06/08 15:52:13;;;;;;;;;;;;;;;30.46;34.97852;101764.1;;;;-71
2023/06/08 15:57:16;;;;;;;;;;;;;;;30.26;34.97559;101751.4;;;;-68
2023/06/08 16:02:13;;;;;;;;;;;;;;;30.14;35.24707;101756;;;;-71
2023/06/08 16:07:13;;;;;;;;;;;;;;;29.91;35.31152;101743.3;;;;-69
2023/06/08 16:12:17;;;;;;;;;;;;;;;29.78;34.66797;101729.9;;;;-69
2023/06/08 16:16:58;;;;;;;0.2;0;;;;;;;;;;;;;-67
2023/06/08 16:17:14;;;;;;;;;;;;;;;29.65;35.53711;101735.1;;;;-70
2023/06/08 16:22:16;;;;;;;;;;;;;;;29.46;35.9082;101731.9;;;;-67
2023/06/08 16:27:14;;;;;;;;;;;;;;;29.26;35.97461;101724.8;;;;-67
2023/06/08 16:32:16;;;;;;;;;;;;;;;29.1;36.02051;101722.9;;;;-68
2023/06/08 16:37:14;;;;;;;;;;;;;;;28.93;36.00684;101728.7;;;;-67
2023/06/08 16:42:13;;;;;;;;;;;;;;;28.72;36.43359;101729.8;;;;-68
2023/06/08 16:47:03;;;;;;;0.2;0;;;;;;;;;;;;;-69
2023/06/08 16:47:15;;;;;;;;;;;;;;;28.58;35.9668;101727.7;;;;-68
2023/06/08 16:52:13;;;;;;;;;;;;;;;28.44;36.55078;101723.3;;;;-66
2023/06/08 16:57:13;;;;;;;;;;;;;;;28.29;36.69043;101720.6;;;;-68
2023/06/08 17:02:13;;;;;;;;;;;;;;;28.14;36.70215;101720.6;;;;-67
2023/06/08 17:07:15;;;;;;;;;;;;;;;27.91;36.84668;101718.4;;;;-70
2023/06/08 17:12:14;;;;;;;;;;;;;;;27.66;36.59277;101720.3;;;;-70
2023/06/08 17:17:15;;;;;;;0.2;0;;;;;;;;;;;;;-71
2023/06/08 17:17:26;;;;;;;;;;;;;;;27.39;36.04688;101715.4;;;;-71
2023/06/08 17:22:16;;;;;;;;;;;;;;;27.24;36.53613;101717.8;;;;-73
2023/06/08 17:27:13;;;;;;;;;;;;;;;26.99;36.70215;101721.4;;;;-70
2023/06/08 17:32:14;;;;;;;;;;;;;;;26.81;36.93066;101720.1;;;;-72
2023/06/08 17:37:15;;;;;;;;;;;;;;;26.61;36.97266;101710.2;;;;-70
2023/06/08 17:42:14;;;;;;;;;;;;;;;26.42;36.8418;101706.2;;;;-68
2023/06/08 17:47:13;;;;;;;;;;;;;;;26.24;37.44238;101703.2;;;;-66
2023/06/08 17:47:22;;;;;;;0.2;0;;;;;;;;;;;;;-66
2023/06/08 17:52:13;;;;;;;;;;;;;;;26.03;37.36621;101700.1;;;;-66
2023/06/08 17:57:13;;;;;;;;;;;;;;;25.8;37.8125;101695.9;;;;-67
2023/06/08 18:02:13;;;;;;;;;;;;;;;25.62;37.86621;101695.9;;;;-67
2023/06/08 18:07:13;;;;;;;;;;;;;;;25.48;37.87695;101695.2;;;;-68
2023/06/08 18:12:13;;;;;;;;;;;;;;;25.21;38.43457;101701.3;;;;-66
2023/06/08 18:17:13;;;;;;;;;;;;;;;25.07;38.56055;101707;;;;-67
2023/06/08 18:17:22;;;;;;;0.2;0;;;;;;;;;;;;;-67
2023/06/08 18:22:16;;;;;;;;;;;;;;;24.9;38.65039;101713;;;;-66
2023/06/08 18:27:13;;;;;;;;;;;;;;;24.67;39.31152;101708.5;;;;-66
2023/06/08 18:32:14;;;;;;;;;;;;;;;24.55;39.26758;101716.5;;;;-65
2023/06/08 18:37:13;;;;;;;;;;;;;;;24.44;38.64551;101708.7;;;;-65
2023/06/08 18:42:13;;;;;;;;;;;;;;;24.32;39.07422;101712;;;;-66
2023/06/08 18:47:13;;;;;;;;;;;;;;;24.18;38.95898;101717.7;;;;-66
2023/06/08 18:47:22;;;;;;;0.8;0.3;;;;;;;;;;;;;-66
2023/06/08 18:52:12;;;;;;;;;;;;;;;24;38.96484;101717.3;;;;-66
2023/06/08 18:57:13;;;;;;;;;;;;;;;23.72;39.53027;101721;;;;-66
2023/06/08 19:02:13;;;;;;;;;;;;;;;23.51;39.44238;101727;;;;-67
2023/06/08 19:07:13;;;;;;;;;;;;;;;23.25;39.66113;101728;;;;-65
2023/06/08 19:12:13;;;;;;;;;;;;;;;23.06;39.83984;101723.9;;;;-66
2023/06/08 19:17:13;;;;;;;;;;;;;;;22.79;40.17285;101734.4;;;;-66
2023/06/08 19:17:26;;;;;;;0.2;0;;;;;;;;;;;;;-65
2023/06/08 19:22:16;;;;;;;;;;;;;;;22.53;40.22949;101739.5;;;;-73
2023/06/08 19:27:13;;;;;;;;;;;;;;;22.31;40.60156;101730.9;;;;-70
2023/06/08 19:32:13;;;;;;;;;;;;;;;22.07;41.26855;101731.5;;;;-68
2023/06/08 19:37:15;;;;;;;;;;;;;;;21.84;41.59277;101739.6;;;;-67
2023/06/08 19:42:13;;;;;;;;;;;;;;;21.66;41.93164;101741.4;;;;-66
2023/06/08 19:47:14;;;;;;;;;;;;;;;21.43;42.44922;101748.8;;;;-69
2023/06/08 19:47:31;;;;;;;0.2;0.1;;;;;;;;;;;;;-67
2023/06/08 19:52:16;;;;;;;;;;;;;;;21.19;42.71289;101749.6;;;;-68
2023/06/08 19:57:13;;;;;;;;;;;;;;;21.01;43.02832;101759;;;;-68
2023/06/08 20:02:15;;;;;;;;;;;;;;;20.82;43.51367;101773.6;;;;-67
2023/06/08 20:07:15;;;;;;;;;;;;;;;20.62;43.76855;101776.5;;;;-67
2023/06/08 20:12:13;;;;;;;;;;;;;;;20.44;44.15234;101782.5;;;;-68
2023/06/08 20:17:13;;;;;;;;;;;;;;;20.27;44.30664;101780.5;;;;-67
2023/06/08 20:17:34;;;;;;;0.3;0.1;;;;;;;;;;;;;-68
2023/06/08 20:22:13;;;;;;;;;;;;;;;20.1;44.66602;101783.8;;;;-68
2023/06/08 20:27:13;;;;;;;;;;;;;;;19.93;45.32324;101785.5;;;;-68
2023/06/08 20:32:13;;;;;;;;;;;;;;;19.75;45.40723;101788.7;;;;-67
2023/06/08 20:37:13;;;;;;;;;;;;;;;19.62;46.14746;101787.5;;;;-69
2023/06/08 20:42:13;;;;;;;;;;;;;;;19.46;46.11914;101790.6;;;;-68
2023/06/08 20:47:13;;;;;;;;;;;;;;;19.32;46.28809;101780.8;;;;-68
2023/06/08 20:47:37;;;;;;;0.2;0;;;;;;;;;;;;;-69
2023/06/08 20:52:17;;;;;;;;;;;;;;;19.16;46.80566;101793;;;;-67
2023/06/08 20:57:13;;;;;;;;;;;;;;;19.01;47.32617;101790.3;;;;-67
2023/06/08 21:02:13;;;;;;;;;;;;;;;18.9;47.99707;101796.4;;;;-69
2023/06/08 21:07:16;;;;;;;;;;;;;;;18.76;48.42676;101801.2;;;;-68
2023/06/08 21:12:13;;;;;;;;;;;;;;;18.64;49.01563;101796.7;;;;-67
2023/06/08 21:17:13;;;;;;;;;;;;;;;18.48;49.39648;101792;;;;-67
2023/06/08 21:17:40;;;;;;;0.2;0.1;;;;;;;;;;;;;-67
2023/06/08 21:22:12;;;;;;;;;;;;;;;18.38;49.66992;101794.2;;;;-68
2023/06/08 21:27:13;;;;;;;;;;;;;;;18.22;50.4248;101793.7;;;;-68
2023/06/08 21:32:13;;;;;;;;;;;;;;;18.17;50.33789;101795.4;;;;-68
2023/06/08 21:37:14;;;;;;;;;;;;;;;18.07;50.47559;101798.8;;;;-69
2023/06/08 21:42:13;;;;;;;;;;;;;;;17.98;50.9082;101798.9;;;;-68
2023/06/08 21:47:15;;;;;;;;;;;;;;;17.83;51.0957;101806.9;;;;-68
2023/06/08 21:47:44;;;;;;;0.3;0.1;;;;;;;;;;;;;-69
2023/06/08 21:52:14;;;;;;;;;;;;;;;17.76;51.15527;101806.7;;;;-68
2023/06/08 21:57:13;;;;;;;;;;;;;;;17.7;51.25098;101816.3;;;;-66
2023/06/08 22:02:13;;;;;;;;;;;;;;;17.6;51.03418;101811.2;;;;-68
2023/06/08 22:07:13;;;;;;;;;;;;;;;17.49;51.39551;101808.4;;;;-67
2023/06/08 22:12:14;;;;;;;;;;;;;;;17.37;52.31152;101808;;;;-66
2023/06/08 22:17:13;;;;;;;;;;;;;;;17.32;52.2832;101817.4;;;;-69
2023/06/08 22:17:46;;;;;;;0.2;0.1;;;;;;;;;;;;;-67
2023/06/08 22:22:12;;;;;;;;;;;;;;;17.24;52.35352;101815.1;;;;-67
2023/06/08 22:27:13;;;;;;;;;;;;;;;17.21;52.33691;101816.6;;;;-69
2023/06/08 22:32:13;;;;;;;;;;;;;;;17.08;52.16504;101816.7;;;;-68
2023/06/08 22:37:13;;;;;;;;;;;;;;;17.01;52.15527;101810.9;;;;-69
2023/06/08 22:42:12;;;;;;;;;;;;;;;16.93;52.63379;101813.3;;;;-66
2023/06/08 22:47:13;;;;;;;;;;;;;;;16.89;52.65039;101810;;;;-68
2023/06/08 22:47:48;;;;;;;0.3;0.1;;;;;;;;;;;;;-69
2023/06/08 22:52:16;;;;;;;;;;;;;;;16.79;52.48145;101809.7;;;;-70
2023/06/08 22:57:13;;;;;;;;;;;;;;;16.74;52.66699;101814;;;;-70
2023/06/08 23:02:15;;;;;;;;;;;;;;;16.66;53.24609;101806.5;;;;-67
2023/06/08 23:07:14;;;;;;;;;;;;;;;16.59;53.32715;101811.9;;;;-69
2023/06/08 23:12:17;;;;;;;;;;;;;;;16.53;52.95898;101802.1;;;;-69
2023/06/08 23:17:14;;;;;;;;;;;;;;;16.47;53.41504;101808.8;;;;-69
2023/06/08 23:17:51;;;;;;;0.2;0;;;;;;;;;;;;;-68
2023/06/08 23:22:13;;;;;;;;;;;;;;;16.4;53.52051;101807;;;;-68
2023/06/08 23:27:13;;;;;;;;;;;;;;;16.34;53.69336;101801.6;;;;-68
2023/06/08 23:32:22;;;;;;;;;;;;;;;16.27;53.83105;101806.2;;;;-67
2023/06/08 23:37:18;;;;;;;;;;;;;;;16.23;53.69141;101801.3;;;;-67
2023/06/08 23:42:13;;;;;;;;;;;;;;;16.15;53.66016;101798.6;;;;-67
2023/06/08 23:47:13;;;;;;;;;;;;;;;16.11;54.08398;101795.2;;;;-68
2023/06/08 23:47:53;;;;;;;0.2;0.1;;;;;;;;;;;;;-67
2023/06/08 23:52:13;;;;;;;;;;;;;;;16.03;53.59961;101796.3;;;;-67
2023/06/08 23:57:16;;;;;;;;;;;;;;;15.98;53.94238;101794.8;;;;-66
